sensor_id;sensor_type;location;lat;lon;timestamp;P1;durP1;ratioP1;P2;durP2;ratioP2
3099;SDS011;1560;52.746;13.474;2022-10-01T00:01:06;14.35;;;12.35;;
3099;SDS011;1560;52.746;13.474;2022-10-01T00:03:44;18.70;;;12.88;;
3099;SDS011;1560;52.746;13.474;2022-10-01T00:06:14;12.37;;;11.08;;
3099;SDS011;1560;52.746;13.474;2022-10-01T00:11:21;14.60;;;12.18;;
3099;SDS011;1560;52.746;13.474;2022-10-01T00:13:52;20.15;;;14.35;;
3099;SDS011;1560;52.746;13.474;2022-10-01T00:16:22;19.05;;;13.98;;
3099;SDS011;1560;52.746;13.474;2022-10-01T00:18:52;21.10;;;14.15;;
3099;SDS011;1560;52.746;13.474;2022-10-01T00:21:24;25.20;;;15.40;;
3099;SDS011;1560;52.746;13.474;2022-10-01T00:23:54;20.68;;;15.30;;
3099;SDS011;1560;52.746;13.474;2022-10-01T00:26:24;18.85;;;15.48;;
3099;SDS011;1560;52.746;13.474;2022-10-01T00:28:55;17.57;;;13.85;;
3099;SDS011;1560;52.746;13.474;2022-10-01T00:31:25;22.85;;;17.10;;
3099;SDS011;1560;52.746;13.474;2022-10-01T00:33:55;20.37;;;15.90;;
3099;SDS011;1560;52.746;13.474;2022-10-01T00:36:26;18.70;;;15.65;;
3099;SDS011;1560;52.746;13.474;2022-10-01T00:38:55;21.60;;;16.77;;
3099;SDS011;1560;52.746;13.474;2022-10-01T00:44:03;20.72;;;14.40;;
3099;SDS011;1560;52.746;13.474;2022-10-01T00:46:53;16.90;;;13.72;;
3099;SDS011;1560;52.746;13.474;2022-10-01T00:52:02;25.77;;;15.72;;
3099;SDS011;1560;52.746;13.474;2022-10-01T00:54:33;19.50;;;15.50;;
3099;SDS011;1560;52.746;13.474;2022-10-01T00:57:05;21.20;;;15.65;;
3099;SDS011;1560;52.746;13.474;2022-10-01T00:59:35;18.92;;;16.17;;
3099;SDS011;1560;52.746;13.474;2022-10-01T01:02:04;20.08;;;15.83;;
3099;SDS011;1560;52.746;13.474;2022-10-01T01:07:09;19.17;;;14.63;;
3099;SDS011;1560;52.746;13.474;2022-10-01T01:09:40;21.07;;;16.07;;
3099;SDS011;1560;52.746;13.474;2022-10-01T01:12:13;20.00;;;14.68;;
3099;SDS011;1560;52.746;13.474;2022-10-01T01:14:47;18.42;;;15.55;;
3099;SDS011;1560;52.746;13.474;2022-10-01T01:17:26;22.40;;;14.80;;
3099;SDS011;1560;52.746;13.474;2022-10-01T01:20:03;18.35;;;14.28;;
3099;SDS011;1560;52.746;13.474;2022-10-01T01:22:45;18.23;;;14.55;;
3099;SDS011;1560;52.746;13.474;2022-10-01T01:25:16;18.48;;;13.80;;
3099;SDS011;1560;52.746;13.474;2022-10-01T01:27:48;20.32;;;14.90;;
3099;SDS011;1560;52.746;13.474;2022-10-01T01:33:00;21.45;;;15.70;;
3099;SDS011;1560;52.746;13.474;2022-10-01T01:35:34;21.45;;;16.50;;
3099;SDS011;1560;52.746;13.474;2022-10-01T01:38:13;21.62;;;15.40;;
3099;SDS011;1560;52.746;13.474;2022-10-01T01:40:43;17.10;;;14.35;;
3099;SDS011;1560;52.746;13.474;2022-10-01T01:43:17;23.77;;;16.37;;
3099;SDS011;1560;52.746;13.474;2022-10-01T01:45:50;19.82;;;15.70;;
3099;SDS011;1560;52.746;13.474;2022-10-01T01:50:59;16.90;;;15.10;;
3099;SDS011;1560;52.746;13.474;2022-10-01T01:53:30;19.17;;;15.55;;
3099;SDS011;1560;52.746;13.474;2022-10-01T01:56:07;18.80;;;15.95;;
3099;SDS011;1560;52.746;13.474;2022-10-01T02:01:30;19.50;;;16.05;;
3099;SDS011;1560;52.746;13.474;2022-10-01T02:04:04;20.88;;;16.87;;
3099;SDS011;1560;52.746;13.474;2022-10-01T02:09:18;19.85;;;15.93;;
3099;SDS011;1560;52.746;13.474;2022-10-01T02:11:51;19.80;;;16.15;;
3099;SDS011;1560;52.746;13.474;2022-10-01T02:14:26;21.33;;;16.75;;
3099;SDS011;1560;52.746;13.474;2022-10-01T02:16:59;22.93;;;15.88;;
3099;SDS011;1560;52.746;13.474;2022-10-01T02:19:40;21.30;;;16.50;;
3099;SDS011;1560;52.746;13.474;2022-10-01T02:22:10;18.07;;;14.18;;
3099;SDS011;1560;52.746;13.474;2022-10-01T02:24:42;20.10;;;16.27;;
3099;SDS011;1560;52.746;13.474;2022-10-01T02:27:22;17.32;;;15.40;;
3099;SDS011;1560;52.746;13.474;2022-10-01T02:29:52;20.45;;;15.48;;
3099;SDS011;1560;52.746;13.474;2022-10-01T02:35:00;16.85;;;14.70;;
3099;SDS011;1560;52.746;13.474;2022-10-01T02:37:31;18.15;;;16.23;;
3099;SDS011;1560;52.746;13.474;2022-10-01T02:40:03;25.00;;;18.82;;
3099;SDS011;1560;52.746;13.474;2022-10-01T02:42:37;18.92;;;14.58;;
3099;SDS011;1560;52.746;13.474;2022-10-01T02:45:09;27.32;;;20.62;;
3099;SDS011;1560;52.746;13.474;2022-10-01T02:50:16;24.40;;;18.48;;
3099;SDS011;1560;52.746;13.474;2022-10-01T02:52:48;20.30;;;16.73;;
3099;SDS011;1560;52.746;13.474;2022-10-01T02:55:21;23.07;;;18.37;;
3099;SDS011;1560;52.746;13.474;2022-10-01T02:57:59;19.85;;;15.65;;
3099;SDS011;1560;52.746;13.474;2022-10-01T03:00:28;21.87;;;16.52;;
3099;SDS011;1560;52.746;13.474;2022-10-01T03:03:06;22.58;;;18.20;;
3099;SDS011;1560;52.746;13.474;2022-10-01T03:08:11;21.00;;;17.32;;
3099;SDS011;1560;52.746;13.474;2022-10-01T03:10:39;23.85;;;17.30;;
3099;SDS011;1560;52.746;13.474;2022-10-01T03:13:08;23.85;;;18.07;;
3099;SDS011;1560;52.746;13.474;2022-10-01T03:15:37;23.80;;;19.05;;
3099;SDS011;1560;52.746;13.474;2022-10-01T03:18:06;27.07;;;19.50;;
3099;SDS011;1560;52.746;13.474;2022-10-01T03:20:34;26.55;;;19.25;;
3099;SDS011;1560;52.746;13.474;2022-10-01T03:23:03;21.82;;;18.92;;
3099;SDS011;1560;52.746;13.474;2022-10-01T03:25:41;23.22;;;18.42;;
3099;SDS011;1560;52.746;13.474;2022-10-01T03:28:09;25.75;;;19.07;;
3099;SDS011;1560;52.746;13.474;2022-10-01T03:33:15;24.98;;;17.73;;
3099;SDS011;1560;52.746;13.474;2022-10-01T03:35:43;26.97;;;19.70;;
3099;SDS011;1560;52.746;13.474;2022-10-01T03:38:13;21.62;;;16.95;;
3099;SDS011;1560;52.746;13.474;2022-10-01T03:43:18;21.62;;;16.65;;
3099;SDS011;1560;52.746;13.474;2022-10-01T03:45:47;19.45;;;16.50;;
3099;SDS011;1560;52.746;13.474;2022-10-01T03:50:53;22.58;;;16.80;;
3099;SDS011;1560;52.746;13.474;2022-10-01T03:53:23;16.65;;;14.75;;
3099;SDS011;1560;52.746;13.474;2022-10-01T03:55:52;21.50;;;16.80;;
3099;SDS011;1560;52.746;13.474;2022-10-01T03:58:21;24.37;;;17.15;;
3099;SDS011;1560;52.746;13.474;2022-10-01T04:00:51;23.60;;;16.45;;
3099;SDS011;1560;52.746;13.474;2022-10-01T04:03:20;20.90;;;16.73;;
3099;SDS011;1560;52.746;13.474;2022-10-01T04:05:49;19.75;;;15.80;;
3099;SDS011;1560;52.746;13.474;2022-10-01T04:08:18;22.73;;;16.15;;
3099;SDS011;1560;52.746;13.474;2022-10-01T04:10:46;20.82;;;16.55;;
3099;SDS011;1560;52.746;13.474;2022-10-01T04:13:15;23.50;;;16.75;;
3099;SDS011;1560;52.746;13.474;2022-10-01T04:15:44;18.75;;;15.65;;
3099;SDS011;1560;52.746;13.474;2022-10-01T04:20:50;18.92;;;15.18;;
3099;SDS011;1560;52.746;13.474;2022-10-01T04:23:19;18.10;;;14.33;;
3099;SDS011;1560;52.746;13.474;2022-10-01T04:25:48;18.80;;;14.78;;
3099;SDS011;1560;52.746;13.474;2022-10-01T04:30:53;19.20;;;14.65;;
3099;SDS011;1560;52.746;13.474;2022-10-01T04:33:41;18.75;;;15.03;;
3099;SDS011;1560;52.746;13.474;2022-10-01T04:38:48;19.92;;;15.83;;
3099;SDS011;1560;52.746;13.474;2022-10-01T04:41:18;16.15;;;13.78;;
3099;SDS011;1560;52.746;13.474;2022-10-01T04:43:56;20.12;;;16.20;;
3099;SDS011;1560;52.746;13.474;2022-10-01T04:46:25;18.30;;;15.43;;
3099;SDS011;1560;52.746;13.474;2022-10-01T04:51:30;19.65;;;14.98;;
3099;SDS011;1560;52.746;13.474;2022-10-01T04:53:59;17.55;;;14.70;;
3099;SDS011;1560;52.746;13.474;2022-10-01T04:59:04;21.93;;;15.40;;
3099;SDS011;1560;52.746;13.474;2022-10-01T05:01:33;20.15;;;13.58;;
3099;SDS011;1560;52.746;13.474;2022-10-01T05:04:02;18.40;;;14.63;;
3099;SDS011;1560;52.746;13.474;2022-10-01T05:09:07;17.00;;;14.60;;
3099;SDS011;1560;52.746;13.474;2022-10-01T05:11:36;17.52;;;13.98;;
3099;SDS011;1560;52.746;13.474;2022-10-01T05:14:14;16.52;;;13.22;;
3099;SDS011;1560;52.746;13.474;2022-10-01T05:19:21;18.87;;;14.18;;
3099;SDS011;1560;52.746;13.474;2022-10-01T05:21:50;17.67;;;13.88;;
3099;SDS011;1560;52.746;13.474;2022-10-01T05:24:19;19.12;;;13.28;;
3099;SDS011;1560;52.746;13.474;2022-10-01T05:26:48;18.90;;;14.45;;
3099;SDS011;1560;52.746;13.474;2022-10-01T05:29:19;14.50;;;12.30;;
3099;SDS011;1560;52.746;13.474;2022-10-01T05:31:48;17.62;;;13.30;;
3099;SDS011;1560;52.746;13.474;2022-10-01T05:36:54;17.27;;;12.75;;
3099;SDS011;1560;52.746;13.474;2022-10-01T05:39:23;14.20;;;12.63;;
3099;SDS011;1560;52.746;13.474;2022-10-01T05:41:52;18.00;;;13.30;;
3099;SDS011;1560;52.746;13.474;2022-10-01T05:46:58;17.00;;;11.80;;
3099;SDS011;1560;52.746;13.474;2022-10-01T05:49:27;16.37;;;12.37;;
3099;SDS011;1560;52.746;13.474;2022-10-01T05:51:56;17.60;;;13.10;;
3099;SDS011;1560;52.746;13.474;2022-10-01T05:54:26;17.67;;;11.93;;
3099;SDS011;1560;52.746;13.474;2022-10-01T05:56:55;13.15;;;11.65;;
3099;SDS011;1560;52.746;13.474;2022-10-01T05:59:24;16.80;;;12.13;;
3099;SDS011;1560;52.746;13.474;2022-10-01T06:01:53;15.90;;;11.25;;
3099;SDS011;1560;52.746;13.474;2022-10-01T06:04:22;14.40;;;11.28;;
3099;SDS011;1560;52.746;13.474;2022-10-01T06:06:52;15.43;;;11.78;;
3099;SDS011;1560;52.746;13.474;2022-10-01T06:11:58;16.15;;;11.50;;
3099;SDS011;1560;52.746;13.474;2022-10-01T06:14:28;15.50;;;10.88;;
3099;SDS011;1560;52.746;13.474;2022-10-01T06:17:05;12.65;;;9.95;;
3099;SDS011;1560;52.746;13.474;2022-10-01T06:19:43;19.00;;;12.25;;
3099;SDS011;1560;52.746;13.474;2022-10-01T06:22:11;19.35;;;11.18;;
3099;SDS011;1560;52.746;13.474;2022-10-01T06:24:40;14.00;;;11.70;;
3099;SDS011;1560;52.746;13.474;2022-10-01T06:27:18;13.90;;;10.65;;
3099;SDS011;1560;52.746;13.474;2022-10-01T06:29:46;16.75;;;10.43;;
3099;SDS011;1560;52.746;13.474;2022-10-01T06:32:15;12.95;;;10.08;;
3099;SDS011;1560;52.746;13.474;2022-10-01T06:34:45;19.40;;;11.83;;
3099;SDS011;1560;52.746;13.474;2022-10-01T06:37:14;15.48;;;11.03;;
3099;SDS011;1560;52.746;13.474;2022-10-01T06:39:43;14.78;;;11.08;;
3099;SDS011;1560;52.746;13.474;2022-10-01T06:42:11;14.65;;;11.50;;
3099;SDS011;1560;52.746;13.474;2022-10-01T06:44:41;15.65;;;11.22;;
3099;SDS011;1560;52.746;13.474;2022-10-01T06:47:09;13.90;;;10.32;;
3099;SDS011;1560;52.746;13.474;2022-10-01T06:49:38;11.20;;;9.50;;
3099;SDS011;1560;52.746;13.474;2022-10-01T06:54:44;13.60;;;9.58;;
3099;SDS011;1560;52.746;13.474;2022-10-01T06:57:13;15.60;;;10.55;;
3099;SDS011;1560;52.746;13.474;2022-10-01T07:02:20;16.27;;;11.70;;
3099;SDS011;1560;52.746;13.474;2022-10-01T07:04:52;12.60;;;9.40;;
3099;SDS011;1560;52.746;13.474;2022-10-01T07:07:22;13.53;;;9.08;;
3099;SDS011;1560;52.746;13.474;2022-10-01T07:12:27;11.50;;;9.75;;
3099;SDS011;1560;52.746;13.474;2022-10-01T07:14:56;10.13;;;8.65;;
3099;SDS011;1560;52.746;13.474;2022-10-01T07:17:25;12.07;;;9.93;;
3099;SDS011;1560;52.746;13.474;2022-10-01T07:19:54;11.57;;;10.20;;
3099;SDS011;1560;52.746;13.474;2022-10-01T07:22:23;12.53;;;10.25;;
3099;SDS011;1560;52.746;13.474;2022-10-01T07:24:52;12.95;;;9.75;;
3099;SDS011;1560;52.746;13.474;2022-10-01T07:29:57;12.98;;;8.93;;
3099;SDS011;1560;52.746;13.474;2022-10-01T07:32:26;10.70;;;9.13;;
3099;SDS011;1560;52.746;13.474;2022-10-01T07:34:57;12.88;;;8.80;;
3099;SDS011;1560;52.746;13.474;2022-10-01T07:37:26;12.07;;;8.95;;
3099;SDS011;1560;52.746;13.474;2022-10-01T07:39:55;13.08;;;9.73;;
3099;SDS011;1560;52.746;13.474;2022-10-01T07:45:00;10.32;;;8.35;;
3099;SDS011;1560;52.746;13.474;2022-10-01T07:50:07;12.55;;;9.43;;
3099;SDS011;1560;52.746;13.474;2022-10-01T07:52:36;12.47;;;9.83;;
3099;SDS011;1560;52.746;13.474;2022-10-01T07:55:06;11.80;;;9.08;;
3099;SDS011;1560;52.746;13.474;2022-10-01T07:57:37;11.97;;;9.98;;
3099;SDS011;1560;52.746;13.474;2022-10-01T08:00:07;14.13;;;8.60;;
3099;SDS011;1560;52.746;13.474;2022-10-01T08:02:37;12.15;;;8.50;;
3099;SDS011;1560;52.746;13.474;2022-10-01T08:05:08;16.07;;;10.05;;
3099;SDS011;1560;52.746;13.474;2022-10-01T08:07:45;12.95;;;10.03;;
3099;SDS011;1560;52.746;13.474;2022-10-01T08:10:15;11.05;;;8.75;;
3099;SDS011;1560;52.746;13.474;2022-10-01T08:12:45;10.53;;;9.25;;
3099;SDS011;1560;52.746;13.474;2022-10-01T08:15:14;11.25;;;8.73;;
3099;SDS011;1560;52.746;13.474;2022-10-01T08:17:44;9.25;;;8.28;;
3099;SDS011;1560;52.746;13.474;2022-10-01T08:20:21;9.45;;;8.45;;
3099;SDS011;1560;52.746;13.474;2022-10-01T08:22:50;12.58;;;9.90;;
3099;SDS011;1560;52.746;13.474;2022-10-01T08:25:19;11.88;;;8.60;;
3099;SDS011;1560;52.746;13.474;2022-10-01T08:27:57;11.05;;;8.90;;
3099;SDS011;1560;52.746;13.474;2022-10-01T08:30:26;12.60;;;9.55;;
3099;SDS011;1560;52.746;13.474;2022-10-01T08:33:03;12.65;;;8.88;;
3099;SDS011;1560;52.746;13.474;2022-10-01T08:38:09;11.25;;;8.18;;
3099;SDS011;1560;52.746;13.474;2022-10-01T08:40:41;9.78;;;7.83;;
3099;SDS011;1560;52.746;13.474;2022-10-01T08:43:15;10.95;;;9.08;;
3099;SDS011;1560;52.746;13.474;2022-10-01T08:45:57;10.58;;;8.33;;
3099;SDS011;1560;52.746;13.474;2022-10-01T08:48:33;8.88;;;7.10;;
3099;SDS011;1560;52.746;13.474;2022-10-01T08:51:07;12.98;;;7.97;;
3099;SDS011;1560;52.746;13.474;2022-10-01T08:53:39;12.30;;;9.03;;
3099;SDS011;1560;52.746;13.474;2022-10-01T08:58:49;13.18;;;8.95;;
3099;SDS011;1560;52.746;13.474;2022-10-01T09:01:19;16.50;;;10.58;;
3099;SDS011;1560;52.746;13.474;2022-10-01T09:03:57;12.80;;;9.43;;
3099;SDS011;1560;52.746;13.474;2022-10-01T09:09:15;11.73;;;7.53;;
3099;SDS011;1560;52.746;13.474;2022-10-01T09:11:58;10.90;;;7.85;;
3099;SDS011;1560;52.746;13.474;2022-10-01T09:14:34;9.75;;;7.55;;
3099;SDS011;1560;52.746;13.474;2022-10-01T09:19:52;9.80;;;8.60;;
3099;SDS011;1560;52.746;13.474;2022-10-01T09:22:31;14.83;;;8.30;;
3099;SDS011;1560;52.746;13.474;2022-10-01T09:25:11;9.23;;;8.20;;
3099;SDS011;1560;52.746;13.474;2022-10-01T09:30:19;10.68;;;7.60;;
3099;SDS011;1560;52.746;13.474;2022-10-01T09:32:51;11.40;;;7.50;;
3099;SDS011;1560;52.746;13.474;2022-10-01T09:38:17;9.18;;;7.20;;
3099;SDS011;1560;52.746;13.474;2022-10-01T09:40:50;11.55;;;7.58;;
3099;SDS011;1560;52.746;13.474;2022-10-01T09:43:20;8.10;;;6.53;;
3099;SDS011;1560;52.746;13.474;2022-10-01T09:45:50;11.28;;;7.40;;
3099;SDS011;1560;52.746;13.474;2022-10-01T09:48:22;9.18;;;7.03;;
3099;SDS011;1560;52.746;13.474;2022-10-01T09:50:55;9.65;;;7.28;;
3099;SDS011;1560;52.746;13.474;2022-10-01T09:56:07;11.12;;;6.40;;
3099;SDS011;1560;52.746;13.474;2022-10-01T09:58:39;11.40;;;7.20;;
3099;SDS011;1560;52.746;13.474;2022-10-01T10:03:53;10.60;;;6.15;;
3099;SDS011;1560;52.746;13.474;2022-10-01T10:06:26;10.60;;;6.65;;
3099;SDS011;1560;52.746;13.474;2022-10-01T10:08:56;8.18;;;6.47;;
3099;SDS011;1560;52.746;13.474;2022-10-01T10:11:27;9.90;;;6.80;;
3099;SDS011;1560;52.746;13.474;2022-10-01T10:16:33;8.33;;;6.25;;
3099;SDS011;1560;52.746;13.474;2022-10-01T10:21:48;7.10;;;6.40;;
3099;SDS011;1560;52.746;13.474;2022-10-01T10:24:22;9.75;;;6.55;;
3099;SDS011;1560;52.746;13.474;2022-10-01T10:26:53;8.35;;;6.10;;
3099;SDS011;1560;52.746;13.474;2022-10-01T10:29:25;8.70;;;6.42;;
3099;SDS011;1560;52.746;13.474;2022-10-01T10:31:55;6.40;;;4.83;;
3099;SDS011;1560;52.746;13.474;2022-10-01T10:34:27;6.65;;;5.03;;
3099;SDS011;1560;52.746;13.474;2022-10-01T10:37:00;7.40;;;5.87;;
3099;SDS011;1560;52.746;13.474;2022-10-01T10:39:33;8.25;;;4.92;;
3099;SDS011;1560;52.746;13.474;2022-10-01T10:42:03;8.60;;;5.20;;
3099;SDS011;1560;52.746;13.474;2022-10-01T10:44:35;5.55;;;4.65;;
3099;SDS011;1560;52.746;13.474;2022-10-01T10:47:05;9.60;;;4.80;;
3099;SDS011;1560;52.746;13.474;2022-10-01T10:49:38;7.33;;;4.33;;
3099;SDS011;1560;52.746;13.474;2022-10-01T10:52:17;5.90;;;5.20;;
3099;SDS011;1560;52.746;13.474;2022-10-01T10:54:49;7.72;;;5.42;;
3099;SDS011;1560;52.746;13.474;2022-10-01T10:57:19;12.65;;;6.05;;
3099;SDS011;1560;52.746;13.474;2022-10-01T10:59:54;9.43;;;6.00;;
3099;SDS011;1560;52.746;13.474;2022-10-01T11:02:24;7.90;;;6.35;;
3099;SDS011;1560;52.746;13.474;2022-10-01T11:04:55;8.35;;;6.03;;
3099;SDS011;1560;52.746;13.474;2022-10-01T11:07:26;9.48;;;7.03;;
3099;SDS011;1560;52.746;13.474;2022-10-01T11:10:09;9.48;;;6.92;;
3099;SDS011;1560;52.746;13.474;2022-10-01T11:12:52;8.13;;;6.72;;
3099;SDS011;1560;52.746;13.474;2022-10-01T11:15:37;11.18;;;6.90;;
3099;SDS011;1560;52.746;13.474;2022-10-01T11:18:23;8.73;;;7.15;;
3099;SDS011;1560;52.746;13.474;2022-10-01T11:21:03;8.45;;;6.80;;
3099;SDS011;1560;52.746;13.474;2022-10-01T11:23:42;8.88;;;6.80;;
3099;SDS011;1560;52.746;13.474;2022-10-01T11:26:18;10.48;;;7.10;;
3099;SDS011;1560;52.746;13.474;2022-10-01T11:28:52;7.22;;;6.47;;
3099;SDS011;1560;52.746;13.474;2022-10-01T11:31:30;9.43;;;7.92;;
3099;SDS011;1560;52.746;13.474;2022-10-01T11:34:07;8.85;;;6.97;;
3099;SDS011;1560;52.746;13.474;2022-10-01T11:39:20;10.95;;;8.40;;
3099;SDS011;1560;52.746;13.474;2022-10-01T11:41:53;10.65;;;8.40;;
3099;SDS011;1560;52.746;13.474;2022-10-01T11:44:32;12.78;;;7.70;;
3099;SDS011;1560;52.746;13.474;2022-10-01T11:47:04;9.40;;;7.00;;
3099;SDS011;1560;52.746;13.474;2022-10-01T11:49:46;11.22;;;7.70;;
3099;SDS011;1560;52.746;13.474;2022-10-01T11:52:30;9.30;;;7.80;;
3099;SDS011;1560;52.746;13.474;2022-10-01T11:55:05;12.03;;;8.70;;
3099;SDS011;1560;52.746;13.474;2022-10-01T11:57:57;11.45;;;9.08;;
3099;SDS011;1560;52.746;13.474;2022-10-01T12:00:52;10.75;;;8.28;;
3099;SDS011;1560;52.746;13.474;2022-10-01T12:03:22;9.68;;;7.80;;
3099;SDS011;1560;52.746;13.474;2022-10-01T12:05:54;11.10;;;8.50;;
3099;SDS011;1560;52.746;13.474;2022-10-01T12:08:25;12.18;;;8.50;;
3099;SDS011;1560;52.746;13.474;2022-10-01T12:10:59;9.93;;;8.30;;
3099;SDS011;1560;52.746;13.474;2022-10-01T12:13:37;12.80;;;9.15;;
3099;SDS011;1560;52.746;13.474;2022-10-01T12:16:11;16.70;;;11.85;;
3099;SDS011;1560;52.746;13.474;2022-10-01T12:21:21;11.57;;;8.28;;
3099;SDS011;1560;52.746;13.474;2022-10-01T12:23:53;12.70;;;8.78;;
3099;SDS011;1560;52.746;13.474;2022-10-01T12:26:26;13.78;;;8.83;;
3099;SDS011;1560;52.746;13.474;2022-10-01T12:29:01;11.78;;;8.75;;
3099;SDS011;1560;52.746;13.474;2022-10-01T12:34:11;9.43;;;6.70;;
3099;SDS011;1560;52.746;13.474;2022-10-01T12:39:28;9.78;;;7.60;;
3099;SDS011;1560;52.746;13.474;2022-10-01T12:42:03;10.55;;;8.15;;
3099;SDS011;1560;52.746;13.474;2022-10-01T12:44:39;11.53;;;7.42;;
3099;SDS011;1560;52.746;13.474;2022-10-01T12:47:19;10.98;;;9.05;;
3099;SDS011;1560;52.746;13.474;2022-10-01T12:49:59;9.85;;;7.55;;
3099;SDS011;1560;52.746;13.474;2022-10-01T12:55:20;11.85;;;9.03;;
3099;SDS011;1560;52.746;13.474;2022-10-01T12:57:56;15.05;;;11.75;;
3099;SDS011;1560;52.746;13.474;2022-10-01T13:00:28;9.05;;;7.80;;
3099;SDS011;1560;52.746;13.474;2022-10-01T13:06:02;19.40;;;11.90;;
3099;SDS011;1560;52.746;13.474;2022-10-01T13:11:26;13.20;;;11.18;;
3099;SDS011;1560;52.746;13.474;2022-10-01T13:14:04;11.85;;;8.18;;
3099;SDS011;1560;52.746;13.474;2022-10-01T13:16:37;9.80;;;6.83;;
3099;SDS011;1560;52.746;13.474;2022-10-01T13:19:09;11.20;;;10.10;;
3099;SDS011;1560;52.746;13.474;2022-10-01T13:21:52;7.95;;;6.42;;
3099;SDS011;1560;52.746;13.474;2022-10-01T13:24:25;8.25;;;6.00;;
3099;SDS011;1560;52.746;13.474;2022-10-01T13:26:57;8.30;;;6.62;;
3099;SDS011;1560;52.746;13.474;2022-10-01T13:32:23;7.83;;;6.33;;
3099;SDS011;1560;52.746;13.474;2022-10-01T13:34:58;9.15;;;6.08;;
3099;SDS011;1560;52.746;13.474;2022-10-01T13:37:36;7.75;;;7.05;;
3099;SDS011;1560;52.746;13.474;2022-10-01T13:40:20;7.05;;;6.37;;
3099;SDS011;1560;52.746;13.474;2022-10-01T13:43:06;7.80;;;7.00;;
3099;SDS011;1560;52.746;13.474;2022-10-01T13:48:17;19.80;;;13.58;;
3099;SDS011;1560;52.746;13.474;2022-10-01T13:50:52;12.80;;;9.68;;
3099;SDS011;1560;52.746;13.474;2022-10-01T13:53:24;13.43;;;10.45;;
3099;SDS011;1560;52.746;13.474;2022-10-01T13:55:55;8.98;;;6.80;;
3099;SDS011;1560;52.746;13.474;2022-10-01T13:58:31;8.68;;;7.90;;
3099;SDS011;1560;52.746;13.474;2022-10-01T14:01:04;7.50;;;6.55;;
3099;SDS011;1560;52.746;13.474;2022-10-01T14:06:32;7.47;;;6.55;;
3099;SDS011;1560;52.746;13.474;2022-10-01T14:09:09;7.58;;;6.50;;
3099;SDS011;1560;52.746;13.474;2022-10-01T14:24:53;10.05;;;7.20;;
3099;SDS011;1560;52.746;13.474;2022-10-01T14:27:32;9.98;;;6.58;;
3099;SDS011;1560;52.746;13.474;2022-10-01T14:30:05;7.97;;;6.37;;
3099;SDS011;1560;52.746;13.474;2022-10-01T14:32:41;8.75;;;6.62;;
3099;SDS011;1560;52.746;13.474;2022-10-01T14:38:00;8.25;;;6.20;;
3099;SDS011;1560;52.746;13.474;2022-10-01T14:40:35;6.53;;;5.85;;
3099;SDS011;1560;52.746;13.474;2022-10-01T14:43:13;8.25;;;7.42;;
3099;SDS011;1560;52.746;13.474;2022-10-01T14:45:53;9.55;;;7.12;;
3099;SDS011;1560;52.746;13.474;2022-10-01T14:48:27;6.80;;;6.10;;
3099;SDS011;1560;52.746;13.474;2022-10-01T14:50:58;10.50;;;7.60;;
3099;SDS011;1560;52.746;13.474;2022-10-01T14:53:29;8.10;;;5.78;;
3099;SDS011;1560;52.746;13.474;2022-10-01T14:56:08;5.97;;;4.80;;
3099;SDS011;1560;52.746;13.474;2022-10-01T14:58:41;6.83;;;5.75;;
3099;SDS011;1560;52.746;13.474;2022-10-01T15:01:16;7.45;;;6.30;;
3099;SDS011;1560;52.746;13.474;2022-10-01T15:03:46;6.60;;;5.20;;
3099;SDS011;1560;52.746;13.474;2022-10-01T15:06:17;8.68;;;6.58;;
3099;SDS011;1560;52.746;13.474;2022-10-01T15:08:48;10.38;;;8.40;;
3099;SDS011;1560;52.746;13.474;2022-10-01T15:11:18;9.20;;;8.30;;
3099;SDS011;1560;52.746;13.474;2022-10-01T15:13:50;9.73;;;5.80;;
3099;SDS011;1560;52.746;13.474;2022-10-01T15:16:22;5.00;;;4.17;;
3099;SDS011;1560;52.746;13.474;2022-10-01T15:18:54;7.85;;;5.55;;
3099;SDS011;1560;52.746;13.474;2022-10-01T15:21:26;7.03;;;5.47;;
3099;SDS011;1560;52.746;13.474;2022-10-01T15:23:57;8.48;;;5.40;;
3099;SDS011;1560;52.746;13.474;2022-10-01T15:26:31;6.50;;;5.55;;
3099;SDS011;1560;52.746;13.474;2022-10-01T15:29:02;8.65;;;6.40;;
3099;SDS011;1560;52.746;13.474;2022-10-01T15:34:19;8.70;;;7.05;;
3099;SDS011;1560;52.746;13.474;2022-10-01T15:36:50;8.05;;;7.25;;
3099;SDS011;1560;52.746;13.474;2022-10-01T15:42:00;6.00;;;5.37;;
3099;SDS011;1560;52.746;13.474;2022-10-01T15:44:38;8.03;;;4.85;;
3099;SDS011;1560;52.746;13.474;2022-10-01T15:47:34;8.80;;;7.05;;
3099;SDS011;1560;52.746;13.474;2022-10-01T16:01:18;7.08;;;4.80;;
3099;SDS011;1560;52.746;13.474;2022-10-01T16:03:53;5.42;;;4.28;;
3099;SDS011;1560;52.746;13.474;2022-10-01T16:06:25;8.38;;;4.60;;
3099;SDS011;1560;52.746;13.474;2022-10-01T16:09:03;4.62;;;4.12;;
3099;SDS011;1560;52.746;13.474;2022-10-01T16:11:51;14.10;;;8.53;;
3099;SDS011;1560;52.746;13.474;2022-10-01T16:14:28;25.35;;;12.37;;
3099;SDS011;1560;52.746;13.474;2022-10-01T16:26:00;5.12;;;4.28;;
3099;SDS011;1560;52.746;13.474;2022-10-01T16:31:06;6.05;;;4.83;;
3099;SDS011;1560;52.746;13.474;2022-10-01T16:33:36;7.60;;;5.20;;
3099;SDS011;1560;52.746;13.474;2022-10-01T16:36:07;8.88;;;5.75;;
3099;SDS011;1560;52.746;13.474;2022-10-01T16:38:37;7.45;;;5.35;;
3099;SDS011;1560;52.746;13.474;2022-10-01T16:41:07;5.42;;;4.80;;
3099;SDS011;1560;52.746;13.474;2022-10-01T16:46:13;5.53;;;4.85;;
3099;SDS011;1560;52.746;13.474;2022-10-01T16:51:19;6.55;;;4.03;;
3099;SDS011;1560;52.746;13.474;2022-10-01T16:53:48;5.40;;;4.10;;
3099;SDS011;1560;52.746;13.474;2022-10-01T16:56:17;5.72;;;4.47;;
3099;SDS011;1560;52.746;13.474;2022-10-01T16:58:46;5.15;;;4.65;;
3099;SDS011;1560;52.746;13.474;2022-10-01T17:03:51;5.00;;;4.50;;
3099;SDS011;1560;52.746;13.474;2022-10-01T17:06:21;6.25;;;4.87;;
3099;SDS011;1560;52.746;13.474;2022-10-01T17:08:58;5.87;;;5.28;;
3099;SDS011;1560;52.746;13.474;2022-10-01T17:11:27;8.05;;;4.80;;
3099;SDS011;1560;52.746;13.474;2022-10-01T17:13:57;6.55;;;4.10;;
3099;SDS011;1560;52.746;13.474;2022-10-01T17:16:27;5.33;;;4.70;;
3099;SDS011;1560;52.746;13.474;2022-10-01T17:18:56;5.15;;;4.65;;
3099;SDS011;1560;52.746;13.474;2022-10-01T17:21:24;6.00;;;4.67;;
3099;SDS011;1560;52.746;13.474;2022-10-01T17:23:53;5.00;;;4.03;;
3099;SDS011;1560;52.746;13.474;2022-10-01T17:26:22;4.90;;;3.80;;
3099;SDS011;1560;52.746;13.474;2022-10-01T17:28:52;6.08;;;4.20;;
3099;SDS011;1560;52.746;13.474;2022-10-01T17:31:21;4.62;;;4.10;;
3099;SDS011;1560;52.746;13.474;2022-10-01T17:36:28;7.92;;;4.30;;
3099;SDS011;1560;52.746;13.474;2022-10-01T17:38:57;4.90;;;4.40;;
3099;SDS011;1560;52.746;13.474;2022-10-01T17:44:02;7.47;;;4.60;;
3099;SDS011;1560;52.746;13.474;2022-10-01T17:46:31;6.45;;;5.00;;
3099;SDS011;1560;52.746;13.474;2022-10-01T17:49:01;5.30;;;4.80;;
3099;SDS011;1560;52.746;13.474;2022-10-01T17:51:38;4.92;;;4.40;;
3099;SDS011;1560;52.746;13.474;2022-10-01T17:54:07;6.10;;;5.30;;
3099;SDS011;1560;52.746;13.474;2022-10-01T17:59:13;7.30;;;5.40;;
3099;SDS011;1560;52.746;13.474;2022-10-01T18:01:42;7.62;;;5.75;;
3099;SDS011;1560;52.746;13.474;2022-10-01T18:04:22;10.35;;;6.80;;
3099;SDS011;1560;52.746;13.474;2022-10-01T18:06:52;9.80;;;7.05;;
3099;SDS011;1560;52.746;13.474;2022-10-01T18:09:21;7.33;;;6.47;;
3099;SDS011;1560;52.746;13.474;2022-10-01T18:11:51;9.40;;;7.75;;
3099;SDS011;1560;52.746;13.474;2022-10-01T18:14:20;8.25;;;7.30;;
3099;SDS011;1560;52.746;13.474;2022-10-01T18:16:49;8.80;;;7.45;;
3099;SDS011;1560;52.746;13.474;2022-10-01T18:19:18;9.93;;;7.85;;
3099;SDS011;1560;52.746;13.474;2022-10-01T18:21:56;9.95;;;7.85;;
3099;SDS011;1560;52.746;13.474;2022-10-01T18:24:27;10.20;;;6.08;;
3099;SDS011;1560;52.746;13.474;2022-10-01T18:26:56;12.82;;;7.40;;
3099;SDS011;1560;52.746;13.474;2022-10-01T18:29:25;6.62;;;5.30;;
3099;SDS011;1560;52.746;13.474;2022-10-01T18:31:59;11.38;;;7.08;;